Time;durP1;ratioP1;P1;durP2;ratioP2;P2;SDS_P1;SDS_P2;PMS_P1;PMS_P2;Temp;Humidity;BMP_temperature;BMP_pressure;BME280_temperature;BME280_humidity;BME280_pressure;Samples;Min_cycle;Max_cycle;Signal;HPM_P1;HPM_P2
2023/03/09 00:01:51;;;;;;;16.40;9.73;;;1.70;99.90;;;;;;5077453;28;20496;-58
2023/03/09 00:12:40;;;;;;;15.38;8.88;;;1.70;99.90;;;;;;4950431;28;20042;-59
2023/03/09 00:15:07;;;;;;;15.52;8.85;;;1.60;99.90;;;;;;4970907;28;20057;-59
2023/03/09 00:17:33;;;;;;;16.15;8.85;;;1.60;99.90;;;;;;4939783;28;20046;-59
2023/03/09 00:20:04;;;;;;;14.35;9.32;;;1.70;99.90;;;;;;4950084;28;20049;-59
2023/03/09 00:22:29;;;;;;;15.57;8.60;;;1.60;99.90;;;;;;4966705;28;20058;-58
2023/03/09 00:24:56;;;;;;;18.30;10.35;;;1.60;99.90;;;;;;4974507;28;20517;-59
2023/03/09 00:27:22;;;;;;;19.00;9.85;;;1.60;99.90;;;;;;4972776;28;20031;-59
2023/03/09 00:29:48;;;;;;;18.38;9.60;;;1.60;99.90;;;;;;4978549;28;20070;-59
2023/03/09 00:32:13;;;;;;;17.83;10.13;;;1.60;99.90;;;;;;4978047;28;20469;-57
2023/03/09 00:34:39;;;;;;;16.58;9.88;;;1.60;99.90;;;;;;4932531;28;20046;-59
2023/03/09 00:37:05;;;;;;;14.50;9.77;;;1.60;99.90;;;;;;4960435;28;20061;-59
2023/03/09 00:39:31;;;;;;;18.27;11.05;;;1.70;99.90;;;;;;4950223;28;20054;-58
2023/03/09 00:41:56;;;;;;;17.10;10.15;;;1.60;99.90;;;;;;4961789;28;20488;-59
2023/03/09 00:44:22;;;;;;;15.82;10.18;;;1.60;99.90;;;;;;4981827;28;20046;-58
2023/03/09 00:46:48;;;;;;;17.67;10.63;;;1.60;99.90;;;;;;4981450;28;20151;-60
2023/03/09 00:49:15;;;;;;;16.15;10.68;;;1.60;99.90;;;;;;4979262;28;20137;-59
2023/03/09 00:51:42;;;;;;;18.92;10.40;;;1.60;99.90;;;;;;4956547;28;20038;-59
2023/03/09 00:54:09;;;;;;;17.60;11.02;;;1.60;99.90;;;;;;4981456;28;20707;-58
2023/03/09 00:56:35;;;;;;;21.25;10.90;;;1.60;99.90;;;;;;4980162;28;20052;-59
2023/03/09 00:59:01;;;;;;;21.60;11.15;;;1.50;99.90;;;;;;4952179;28;20050;-59
2023/03/09 01:01:27;;;;;;;16.88;10.95;;;1.50;99.90;;;;;;4981374;28;22080;-59
2023/03/09 01:03:53;;;;;;;21.73;12.45;;;1.40;99.90;;;;;;4981163;28;20437;-58
2023/03/09 01:06:19;;;;;;;20.27;12.32;;;1.40;99.90;;;;;;4980163;28;20065;-59
2023/03/09 01:08:45;;;;;;;17.83;11.88;;;1.40;99.90;;;;;;4960370;28;20133;-59
2023/03/09 01:11:14;;;;;;;20.17;12.48;;;1.40;99.90;;;;;;4945015;28;20042;-58
2023/03/09 01:13:40;;;;;;;19.88;13.13;;;1.40;99.90;;;;;;4960597;28;20046;-58
2023/03/09 01:16:07;;;;;;;23.67;13.05;;;1.30;99.90;;;;;;4973666;28;20510;-59
2023/03/09 01:18:32;;;;;;;22.77;13.23;;;1.30;99.90;;;;;;4977255;28;20503;-57
2023/03/09 01:21:00;;;;;;;22.50;13.10;;;1.30;99.90;;;;;;4979487;28;20042;-58
2023/03/09 01:23:26;;;;;;;20.23;12.45;;;1.20;99.90;;;;;;4963544;28;20073;-58
2023/03/09 01:25:52;;;;;;;20.40;12.90;;;1.20;99.90;;;;;;4954835;28;20042;-58
2023/03/09 01:28:17;;;;;;;20.98;12.85;;;1.10;99.90;;;;;;4978941;28;20073;-58
2023/03/09 01:30:43;;;;;;;20.63;12.27;;;1.20;99.90;;;;;;4982855;28;20049;-58
2023/03/09 01:33:09;;;;;;;21.27;13.13;;;1.10;99.90;;;;;;4976714;28;20229;-60
2023/03/09 01:35:38;;;;;;;21.05;12.77;;;1.10;99.90;;;;;;4978055;28;20046;-60
2023/03/09 01:38:03;;;;;;;21.80;12.70;;;1.10;99.90;;;;;;4980073;28;20733;-60
2023/03/09 01:40:30;;;;;;;25.77;13.80;;;1.00;99.90;;;;;;4983009;28;20050;-58
2023/03/09 01:42:58;;;;;;;22.88;13.25;;;1.00;99.90;;;;;;4977577;28;20042;-58
2023/03/09 01:45:29;;;;;;;22.98;13.18;;;1.00;99.90;;;;;;4978396;28;20255;-58
2023/03/09 01:47:59;;;;;;;21.73;13.07;;;0.90;99.90;;;;;;4981807;28;20050;-59
2023/03/09 01:50:31;;;;;;;27.42;13.15;;;0.90;99.90;;;;;;4981433;28;20162;-59
2023/03/09 01:53:04;;;;;;;25.65;13.65;;;0.80;99.90;;;;;;4978532;28;20054;-58
2023/03/09 01:55:32;;;;;;;;;;;0.80;99.90;;;;;;4959638;28;20050;-58
2023/03/09 01:57:59;;;;;;;24.65;13.70;;;0.80;99.90;;;;;;4976639;28;19936;-58
2023/03/09 02:00:26;;;;;;;26.13;14.52;;;0.70;99.90;;;;;;4957695;28;22049;-59
2023/03/09 02:03:15;;;;;;;24.08;13.63;;;0.60;99.90;;;;;;4968851;28;20050;-57
2023/03/09 02:06:20;;;;;;;23.48;13.77;;;0.60;99.90;;;;;;4963299;28;20042;-58
2023/03/09 02:09:25;;;;;;;26.60;13.70;;;0.60;99.90;;;;;;4919612;28;20063;-58
2023/03/09 02:11:50;;;;;;;28.13;14.02;;;0.60;99.90;;;;;;4912755;29;20066;-59
2023/03/09 02:14:17;;;;;;;22.98;14.02;;;0.50;99.90;;;;;;4954296;28;20062;-57
2023/03/09 02:16:43;;;;;;;27.02;13.48;;;0.50;99.90;;;;;;4979906;28;20053;-59
2023/03/09 02:19:28;;;;;;;25.98;13.32;;;0.60;99.90;;;;;;4929241;28;20050;-60
2023/03/09 02:21:55;;;;;;;25.83;14.43;;;0.50;99.90;;;;;;4964388;28;20500;-61
2023/03/09 02:24:50;;;;;;;24.58;14.82;;;0.50;99.90;;;;;;4976294;28;20042;-58
2023/03/09 02:27:19;;;;;;;25.45;13.93;;;0.50;99.90;;;;;;4979479;28;20096;-59
2023/03/09 02:29:46;;;;;;;25.10;13.95;;;0.50;99.90;;;;;;4977603;28;20411;-58
2023/03/09 02:32:12;;;;;;;23.27;13.90;;;0.50;99.90;;;;;;4973455;28;20065;-58
2023/03/09 02:34:38;;;;;;;26.42;14.30;;;0.50;99.90;;;;;;4973530;28;20118;-57
2023/03/09 02:37:15;;;;;;;24.85;13.82;;;0.40;99.90;;;;;;4961181;28;20212;-60
2023/03/09 02:39:46;;;;;;;24.55;14.52;;;0.40;99.90;;;;;;4975049;28;20496;-58
2023/03/09 02:42:12;;;;;;;25.75;14.70;;;0.50;99.90;;;;;;4979015;28;20521;-59
2023/03/09 02:44:38;;;;;;;26.40;14.85;;;0.40;99.90;;;;;;4960245;28;20576;-58
2023/03/09 02:47:09;;;;;;;27.65;15.48;;;0.40;99.90;;;;;;4977707;28;20046;-58
2023/03/09 02:49:35;;;;;;;26.50;14.95;;;0.40;99.90;;;;;;4963979;28;20621;-60
2023/03/09 02:52:01;;;;;;;29.58;15.05;;;0.40;99.90;;;;;;4977085;28;20088;-60
2023/03/09 02:54:27;;;;;;;26.95;14.45;;;0.50;99.90;;;;;;4962250;28;20082;-60
2023/03/09 02:56:53;;;;;;;28.38;14.93;;;0.40;99.90;;;;;;4977024;28;20416;-60
2023/03/09 02:59:18;;;;;;;29.83;15.00;;;0.30;99.90;;;;;;4959514;28;20054;-60
2023/03/09 03:01:44;;;;;;;32.33;15.20;;;0.40;99.90;;;;;;4976987;28;20050;-60
2023/03/09 03:04:10;;;;;;;29.83;15.15;;;0.30;99.90;;;;;;4951070;28;20053;-60
2023/03/09 03:06:36;;;;;;;27.50;15.27;;;0.30;99.90;;;;;;4978683;28;20049;-60
2023/03/09 03:09:01;;;;;;;27.45;15.23;;;0.30;99.90;;;;;;4963345;28;20074;-60
2023/03/09 03:11:27;;;;;;;27.80;15.73;;;0.30;99.90;;;;;;4959929;28;20058;-60
2023/03/09 03:13:54;;;;;;;29.02;15.27;;;0.30;99.90;;;;;;4976310;28;20555;-60
2023/03/09 03:16:20;;;;;;;27.05;15.70;;;0.40;99.90;;;;;;4979296;28;20039;-59
2023/03/09 03:18:46;;;;;;;31.02;16.85;;;0.30;99.90;;;;;;4978873;28;20046;-60
2023/03/09 03:21:12;;;;;;;29.20;15.95;;;0.30;99.90;;;;;;4944078;28;20133;-60
2023/03/09 03:23:38;;;;;;;30.52;16.92;;;0.30;99.90;;;;;;4975696;28;20416;-60
2023/03/09 03:26:08;;;;;;;31.65;17.23;;;0.40;99.90;;;;;;4974388;28;20045;-60
2023/03/09 03:28:34;;;;;;;33.92;17.35;;;0.30;99.90;;;;;;4957721;28;20374;-60
2023/03/09 03:31:00;;;;;;;29.10;16.70;;;0.40;99.90;;;;;;4954559;28;20167;-60
2023/03/09 03:33:26;;;;;;;34.72;18.02;;;0.40;99.90;;;;;;4977574;28;20149;-59
2023/03/09 03:35:52;;;;;;;34.67;18.08;;;0.40;99.90;;;;;;4960629;28;20038;-60
2023/03/09 03:38:18;;;;;;;32.97;16.98;;;0.40;99.90;;;;;;4979206;28;20057;-59
2023/03/09 03:40:44;;;;;;;31.08;16.35;;;0.40;99.90;;;;;;4960833;28;20038;-60
2023/03/09 03:43:10;;;;;;;31.52;17.45;;;0.40;99.90;;;;;;4976945;28;20085;-60
2023/03/09 03:45:36;;;;;;;31.70;17.15;;;0.40;99.90;;;;;;4950241;28;20038;-59
2023/03/09 03:48:01;;;;;;;35.20;17.90;;;0.40;99.90;;;;;;4964039;28;20046;-59
2023/03/09 03:50:27;;;;;;;37.85;18.92;;;0.40;99.90;;;;;;4960796;28;20053;-63
2023/03/09 03:52:53;;;;;;;36.42;18.98;;;0.40;99.90;;;;;;4962445;28;20168;-60
2023/03/09 03:55:19;;;;;;;33.47;18.80;;;0.40;99.90;;;;;;4977524;28;20499;-59
2023/03/09 03:57:44;;;;;;;37.17;18.67;;;0.40;99.90;;;;;;4957702;28;20054;-60
2023/03/09 04:00:11;;;;;;;34.55;18.52;;;0.50;99.90;;;;;;4973732;28;20125;-61
2023/03/09 04:02:38;;;;;;;33.83;18.45;;;0.50;99.90;;;;;;4977229;28;20046;-61
2023/03/09 04:05:04;;;;;;;36.88;19.00;;;0.50;99.90;;;;;;4971721;28;20057;-62
2023/03/09 04:07:30;;;;;;;37.85;18.98;;;0.50;99.90;;;;;;4959237;28;20045;-61
2023/03/09 04:09:56;;;;;;;30.83;18.45;;;0.50;99.90;;;;;;4978972;28;20528;-61
2023/03/09 04:12:22;;;;;;;35.50;19.05;;;0.50;99.90;;;;;;4977220;28;20377;-60
2023/03/09 04:14:48;;;;;;;32.10;18.17;;;0.50;99.90;;;;;;4979947;28;20046;-61
2023/03/09 04:17:14;;;;;;;33.30;18.88;;;0.50;99.90;;;;;;4973687;28;20084;-61
2023/03/09 04:19:40;;;;;;;31.73;18.48;;;0.50;99.90;;;;;;4963736;28;20046;-60
2023/03/09 04:22:07;;;;;;;33.38;18.48;;;0.50;99.90;;;;;;4976087;28;20046;-61
2023/03/09 04:24:33;;;;;;;34.20;19.42;;;0.50;99.90;;;;;;4956582;28;20046;-62
2023/03/09 04:27:00;;;;;;;37.85;19.38;;;0.50;99.90;;;;;;4948323;28;20050;-61
2023/03/09 04:29:25;;;;;;;32.38;17.88;;;0.50;99.90;;;;;;4975819;28;20523;-61
2023/03/09 04:31:51;;;;;;;35.17;19.55;;;0.50;99.90;;;;;;4957211;28;20050;-62
2023/03/09 04:34:17;;;;;;;35.63;18.55;;;0.50;99.90;;;;;;4942843;28;20042;-62
2023/03/09 04:36:43;;;;;;;38.60;18.38;;;0.50;99.90;;;;;;4974834;28;20133;-61
2023/03/09 04:39:09;;;;;;;31.85;18.15;;;0.60;99.90;;;;;;4955559;28;20065;-61
2023/03/09 04:41:35;;;;;;;41.47;19.08;;;0.50;99.90;;;;;;4961113;28;20050;-61
2023/03/09 04:44:01;;;;;;;33.50;18.05;;;0.50;99.90;;;;;;4973300;28;20067;-62
2023/03/09 04:46:27;;;;;;;32.58;17.92;;;0.50;99.90;;;;;;4978661;28;20047;-61
2023/03/09 04:48:53;;;;;;;33.03;18.48;;;0.40;99.90;;;;;;4980724;28;20047;-60
2023/03/09 04:51:19;;;;;;;37.50;19.63;;;0.50;99.90;;;;;;4979962;28;20871;-60
2023/03/09 04:53:45;;;;;;;34.70;19.77;;;0.40;99.90;;;;;;4953350;28;20519;-61
2023/03/09 04:56:11;;;;;;;33.17;18.25;;;0.50;99.90;;;;;;4976795;28;20043;-60
2023/03/09 04:58:36;;;;;;;34.97;18.52;;;0.40;99.90;;;;;;4961783;28;20640;-61
2023/03/09 05:01:02;;;;;;;32.92;18.40;;;0.40;99.90;;;;;;4960059;28;20547;-61
2023/03/09 05:03:29;;;;;;;35.60;18.60;;;0.40;99.90;;;;;;4964218;28;20039;-61
2023/03/09 05:05:55;;;;;;;33.03;18.88;;;0.40;99.90;;;;;;4977615;28;20047;-62
2023/03/09 05:08:21;;;;;;;33.58;18.40;;;0.50;99.90;;;;;;4976321;28;20062;-61
2023/03/09 05:10:47;;;;;;;34.10;18.90;;;0.40;99.90;;;;;;4962160;28;20149;-61
2023/03/09 05:13:13;;;;;;;33.30;18.35;;;0.40;99.90;;;;;;4975371;28;20933;-61
2023/03/09 05:15:40;;;;;;;32.72;18.40;;;0.40;99.90;;;;;;4960105;28;20132;-62
2023/03/09 05:18:07;;;;;;;35.53;19.33;;;0.40;99.90;;;;;;4978308;28;20085;-60
2023/03/09 05:20:33;;;;;;;33.70;18.52;;;0.40;99.90;;;;;;4960140;28;20073;-61
2023/03/09 05:23:00;;;;;;;34.22;18.70;;;0.40;99.90;;;;;;4979527;28;20081;-61
2023/03/09 05:25:26;;;;;;;34.20;18.60;;;0.40;99.90;;;;;;4955370;28;20153;-60
2023/03/09 05:27:52;;;;;;;32.05;18.10;;;0.40;99.90;;;;;;4979221;28;20592;-62
2023/03/09 05:30:19;;;;;;;31.33;17.58;;;0.40;99.90;;;;;;4983363;28;20050;-61
2023/03/09 05:32:46;;;;;;;35.50;18.52;;;0.50;99.90;;;;;;4982397;28;20497;-61
2023/03/09 05:35:12;;;;;;;34.17;18.17;;;0.40;99.90;;;;;;4965691;28;20116;-61
2023/03/09 05:37:38;;;;;;;30.95;17.00;;;0.40;99.90;;;;;;4982335;28;20061;-60
2023/03/09 05:40:05;;;;;;;34.30;18.10;;;0.40;99.90;;;;;;4977687;28;20038;-62
2023/03/09 05:42:31;;;;;;;29.83;17.05;;;0.40;99.90;;;;;;4981072;28;20104;-62
2023/03/09 05:44:59;;;;;;;30.77;18.75;;;0.40;99.90;;;;;;4947764;28;22058;-61
2023/03/09 05:47:25;;;;;;;34.42;18.63;;;0.40;99.90;;;;;;4982186;28;20042;-61
2023/03/09 05:49:51;;;;;;;31.23;17.40;;;0.40;99.90;;;;;;4963772;28;20050;-61
2023/03/09 05:52:17;;;;;;;34.38;19.25;;;0.40;99.90;;;;;;4961533;28;20389;-62
2023/03/09 05:54:43;;;;;;;29.98;17.48;;;0.40;99.90;;;;;;4981150;28;20169;-61
2023/03/09 05:57:12;;;;;;;30.98;18.25;;;0.40;99.90;;;;;;4980156;28;20050;-61
2023/03/09 05:59:38;;;;;;;30.48;17.08;;;0.40;99.90;;;;;;4958700;28;20073;-61
2023/03/09 06:02:04;;;;;;;32.50;17.90;;;0.40;99.90;;;;;;4976878;28;20043;-61
2023/03/09 06:04:30;;;;;;;34.33;18.45;;;0.40;99.90;;;;;;4975707;28;20940;-61
2023/03/09 06:06:56;;;;;;;31.95;19.02;;;0.40;99.90;;;;;;4977102;28;20143;-62
2023/03/09 06:09:22;;;;;;;29.45;17.65;;;0.40;99.90;;;;;;4964120;28;20063;-61
2023/03/09 06:11:48;;;;;;;31.38;17.25;;;0.40;99.90;;;;;;4981646;28;20057;-61
2023/03/09 06:14:13;;;;;;;27.70;16.90;;;0.40;99.90;;;;;;4956144;28;20077;-60
2023/03/09 06:16:39;;;;;;;28.88;17.60;;;0.40;99.90;;;;;;4976819;28;20042;-62
2023/03/09 06:19:05;;;;;;;34.85;18.25;;;0.40;99.90;;;;;;4979530;28;20049;-60
2023/03/09 06:21:31;;;;;;;26.48;16.80;;;0.40;99.90;;;;;;4963730;28;20050;-62
2023/03/09 06:23:57;;;;;;;27.80;16.90;;;0.50;99.90;;;;;;4957042;28;20984;-62
2023/03/09 06:26:26;;;;;;;28.20;16.88;;;0.40;99.90;;;;;;4982832;28;20080;-60
2023/03/09 06:28:52;;;;;;;31.80;17.55;;;0.40;99.90;;;;;;4978092;28;20137;-60
2023/03/09 06:31:18;;;;;;;26.55;16.60;;;0.50;99.90;;;;;;4959216;28;20038;-61
2023/03/09 06:33:46;;;;;;;29.30;17.52;;;0.50;99.90;;;;;;4972611;28;20162;-61
2023/03/09 06:36:14;;;;;;;27.25;16.67;;;0.60;99.90;;;;;;4944777;28;20136;-61
2023/03/09 06:38:40;;;;;;;28.95;17.20;;;0.50;99.90;;;;;;4975431;28;20172;-61
2023/03/09 06:41:07;;;;;;;29.08;17.52;;;0.50;99.90;;;;;;4972205;28;20054;-61
2023/03/09 06:43:32;;;;;;;30.60;17.98;;;0.50;99.90;;;;;;4942575;28;20444;-61
2023/03/09 06:45:59;;;;;;;28.50;16.75;;;0.50;99.90;;;;;;4962878;28;20088;-61
2023/03/09 06:48:26;;;;;;;32.58;18.08;;;0.50;99.90;;;;;;4976745;28;20038;-60
2023/03/09 06:50:52;;;;;;;32.05;17.35;;;0.50;99.90;;;;;;4980639;28;20568;-61
2023/03/09 06:53:18;;;;;;;30.67;17.92;;;0.60;99.90;;;;;;4981420;28;20136;-61
2023/03/09 06:55:44;;;;;;;29.40;17.38;;;0.60;99.90;;;;;;4963580;28;20397;-61
2023/03/09 06:58:10;;;;;;;30.80;17.15;;;0.60;99.90;;;;;;4938326;28;20050;-61
2023/03/09 07:00:40;;;;;;;28.50;16.75;;;0.60;99.90;;;;;;4973120;28;20054;-61
2023/03/09 07:03:09;;;;;;;28.70;16.83;;;0.70;99.90;;;;;;4972705;28;20759;-61
2023/03/09 07:05:34;;;;;;;29.48;17.20;;;0.70;99.90;;;;;;4972783;28;20061;-68
2023/03/09 07:08:00;;;;;;;29.67;17.27;;;0.60;99.90;;;;;;4927864;28;20046;-63
2023/03/09 07:10:26;;;;;;;30.90;17.48;;;0.70;99.90;;;;;;4944625;28;20061;-63
2023/03/09 07:12:52;;;;;;;29.52;16.75;;;0.70;99.90;;;;;;4947070;28;20054;-62
2023/03/09 07:15:18;;;;;;;28.70;17.13;;;0.80;99.90;;;;;;4978883;28;20065;-63
2023/03/09 07:17:43;;;;;;;29.63;17.63;;;0.70;99.90;;;;;;4963627;28;20058;-63
2023/03/09 07:20:10;;;;;;;31.73;16.85;;;1.10;99.90;;;;;;4964178;28;20192;-63
2023/03/09 07:22:36;;;;;;;27.15;17.13;;;0.80;99.90;;;;;;4964452;28;20046;-63
2023/03/09 07:25:02;;;;;;;29.55;16.85;;;0.90;99.90;;;;;;4964365;28;20053;-62
2023/03/09 07:27:27;;;;;;;26.48;16.23;;;0.90;99.90;;;;;;4964108;28;20050;-62
2023/03/09 07:29:53;;;;;;;30.10;17.20;;;0.90;99.90;;;;;;4958555;28;20130;-63
2023/03/09 07:32:19;;;;;;;28.83;16.35;;;0.90;99.90;;;;;;4940695;28;20105;-62
2023/03/09 07:34:45;;;;;;;33.05;16.52;;;0.90;99.90;;;;;;4961660;28;20141;-64
2023/03/09 07:37:11;;;;;;;28.40;16.40;;;1.00;99.90;;;;;;4983754;28;20492;-62
2023/03/09 07:39:37;;;;;;;26.88;16.92;;;0.90;99.90;;;;;;4981952;28;20068;-63
2023/03/09 07:42:02;;;;;;;27.50;16.73;;;0.90;99.90;;;;;;4947317;28;20050;-63
2023/03/09 07:44:29;;;;;;;28.42;17.60;;;0.90;99.90;;;;;;4915490;28;20041;-63
2023/03/09 07:46:55;;;;;;;26.40;17.05;;;0.90;99.90;;;;;;4945879;28;20594;-63
2023/03/09 07:49:21;;;;;;;28.60;17.20;;;1.00;99.90;;;;;;4943133;28;20042;-63
2023/03/09 07:51:47;;;;;;;28.50;16.77;;;1.00;99.90;;;;;;4963987;28;20050;-63
2023/03/09 07:54:12;;;;;;;30.13;17.88;;;1.00;99.90;;;;;;4978677;28;20073;-63
2023/03/09 07:56:38;;;;;;;28.88;16.20;;;1.10;99.90;;;;;;4964119;28;20400;-63
2023/03/09 07:59:04;;;;;;;26.63;16.40;;;1.10;99.90;;;;;;4975209;28;20049;-62
2023/03/09 08:01:30;;;;;;;27.60;16.73;;;1.20;99.90;;;;;;4948454;28;20085;-63
2023/03/09 08:03:56;;;;;;;27.35;15.55;;;1.30;99.90;;;;;;4945679;28;20050;-63
2023/03/09 08:06:22;;;;;;;28.48;16.63;;;1.40;99.90;;;;;;4963734;28;20046;-62
2023/03/09 08:08:49;;;;;;;24.98;15.65;;;1.40;99.90;;;;;;4946429;28;20058;-62
2023/03/09 08:11:16;;;;;;;25.92;14.32;;;1.40;99.90;;;;;;4948776;28;20096;-63
2023/03/09 08:13:41;;;;;;;22.77;14.00;;;1.60;99.90;;;;;;4979774;28;20046;-63
2023/03/09 08:16:09;;;;;;;21.00;13.93;;;1.70;99.90;;;;;;4962057;28;20092;-63
2023/03/09 08:18:35;;;;;;;18.65;12.13;;;1.70;99.90;;;;;;4963336;28;20046;-63
2023/03/09 08:21:11;;;;;;;20.25;12.48;;;1.80;99.90;;;;;;4964623;28;20481;-63
2023/03/09 08:23:39;;;;;;;19.15;12.50;;;1.90;99.90;;;;;;4943384;28;20117;-63
2023/03/09 08:26:11;;;;;;;19.02;11.98;;;1.90;99.90;;;;;;4964659;28;20116;-63
2023/03/09 08:28:38;;;;;;;15.57;11.60;;;1.90;99.90;;;;;;4946950;28;20129;-63
2023/03/09 08:31:04;;;;;;;17.08;11.77;;;1.90;99.90;;;;;;4979398;28;20100;-63
2023/03/09 08:33:30;;;;;;;19.83;11.55;;;2.00;99.90;;;;;;4946664;28;20101;-63
2023/03/09 08:35:56;;;;;;;15.77;11.15;;;2.10;99.90;;;;;;4944542;28;20061;-63
2023/03/09 08:38:22;;;;;;;14.77;10.82;;;2.20;99.90;;;;;;4947566;28;20108;-63
2023/03/09 08:40:48;;;;;;;14.77;10.48;;;2.30;99.90;;;;;;4963918;28;20050;-63
2023/03/09 08:43:14;;;;;;;14.40;10.20;;;2.40;99.90;;;;;;4946231;28;20053;-63
2023/03/09 08:45:40;;;;;;;15.02;9.85;;;2.50;99.90;;;;;;4964786;28;20038;-63
2023/03/09 08:48:06;;;;;;;16.65;10.68;;;2.50;99.90;;;;;;4961283;28;20511;-63
2023/03/09 08:50:32;;;;;;;15.63;10.60;;;2.60;99.90;;;;;;4964021;28;20046;-63
2023/03/09 08:52:58;;;;;;;13.57;9.93;;;2.70;99.90;;;;;;4963353;28;20048;-63
2023/03/09 08:55:24;;;;;;;16.27;10.07;;;2.70;99.90;;;;;;4949184;28;20057;-63
2023/03/09 08:57:51;;;;;;;18.75;10.73;;;2.70;99.90;;;;;;4964839;28;20108;-63
2023/03/09 09:00:18;;;;;;;16.40;11.02;;;2.80;99.90;;;;;;4966377;28;20393;-63
2023/03/09 09:02:43;;;;;;;17.00;10.75;;;2.90;99.90;;;;;;4963211;28;20052;-63
2023/03/09 09:05:10;;;;;;;17.27;9.75;;;3.00;99.90;;;;;;4967471;28;20038;-63
2023/03/09 09:07:37;;;;;;;12.98;9.63;;;3.10;99.90;;;;;;4967955;28;20038;-63
2023/03/09 09:10:04;;;;;;;15.32;10.82;;;3.20;99.90;;;;;;4967953;28;20761;-63
2023/03/09 09:12:32;;;;;;;14.68;9.95;;;3.40;99.90;;;;;;4968631;28;20159;-63
2023/03/09 09:14:58;;;;;;;13.43;9.45;;;3.50;99.90;;;;;;4983868;28;20051;-63
2023/03/09 09:17:23;;;;;;;13.35;9.70;;;3.60;99.90;;;;;;4950576;28;20056;-63
2023/03/09 09:19:51;;;;;;;13.18;9.20;;;3.70;99.90;;;;;;4963666;28;20054;-63
2023/03/09 09:22:17;;;;;;;14.60;9.55;;;3.80;99.90;;;;;;4950865;28;20158;-63
2023/03/09 09:24:43;;;;;;;16.73;9.48;;;3.80;99.90;;;;;;4948765;28;20054;-63
2023/03/09 09:27:10;;;;;;;15.65;10.00;;;3.80;99.90;;;;;;4964878;28;20118;-63
2023/03/09 09:29:36;;;;;;;13.07;9.35;;;3.80;99.90;;;;;;4947488;28;20133;-63
2023/03/09 09:32:06;;;;;;;14.43;9.38;;;4.00;99.90;;;;;;4967794;28;20054;-63
2023/03/09 09:34:33;;;;;;;14.35;9.82;;;4.20;99.90;;;;;;4965814;28;20086;-63
2023/03/09 09:37:03;;;;;;;14.70;8.98;;;4.30;99.90;;;;;;4965567;28;20072;-63
2023/03/09 09:39:29;;;;;;;11.90;9.07;;;4.50;99.90;;;;;;4936855;28;20074;-63
2023/03/09 09:41:59;;;;;;;11.40;8.40;;;4.60;99.90;;;;;;4965500;28;20053;-63
2023/03/09 09:44:29;;;;;;;11.63;7.93;;;4.70;99.90;;;;;;4965039;28;20066;-63
2023/03/09 09:46:59;;;;;;;9.27;7.03;;;4.80;99.90;;;;;;4965791;28;20069;-63
2023/03/09 09:49:26;;;;;;;9.85;7.00;;;4.70;99.90;;;;;;4967411;28;20125;-63
2023/03/09 09:52:26;;;;;;;10.63;7.50;;;4.60;99.90;;;;;;4980662;28;20062;-63
2023/03/09 09:55:20;;;;;;;9.10;6.47;;;4.60;99.90;;;;;;4966970;28;20353;-63
2023/03/09 09:58:38;;;;;;;8.57;6.82;;;4.60;99.90;;;;;;4950135;28;20054;-63
2023/03/09 10:01:16;;;;;;;10.93;7.25;;;4.60;99.90;;;;;;4933684;28;20050;-63
2023/03/09 10:03:45;;;;;;;12.15;7.53;;;4.70;99.90;;;;;;4960717;28;20054;-63
2023/03/09 10:06:17;;;;;;;9.82;7.32;;;4.90;99.90;;;;;;4963383;28;20042;-63
2023/03/09 10:08:53;;;;;;;9.20;6.80;;;5.10;99.90;;;;;;4964591;28;20062;-63
2023/03/09 10:11:38;;;;;;;11.30;7.28;;;5.30;99.90;;;;;;4966366;28;20038;-63
2023/03/09 10:14:07;;;;;;;9.15;6.85;;;5.40;99.90;;;;;;4962372;28;20046;-63
2023/03/09 10:16:44;;;;;;;12.10;7.22;;;5.60;99.90;;;;;;4959674;28;20050;-63
2023/03/09 10:19:25;;;;;;;10.30;7.20;;;5.70;99.90;;;;;;4964178;28;20117;-63
2023/03/09 10:21:55;;;;;;;8.60;6.50;;;5.90;99.90;;;;;;4967552;28;20050;-63
2023/03/09 10:24:43;;;;;;;7.85;5.90;;;6.10;99.90;;;;;;4964348;28;20124;-63
2023/03/09 10:27:45;;;;;;;9.63;6.50;;;6.30;99.90;;;;;;4963761;28;20525;-63
2023/03/09 10:30:33;;;;;;;8.63;6.20;;;6.50;99.90;;;;;;4962894;28;20057;-63
2023/03/09 10:33:10;;;;;;;7.60;5.80;;;6.60;99.90;;;;;;4949410;28;20074;-63
2023/03/09 10:35:58;;;;;;;7.53;5.72;;;6.60;99.90;;;;;;4961995;28;20078;-63
2023/03/09 10:38:24;;;;;;;7.18;5.22;;;6.60;99.90;;;;;;4950594;28;20085;-64
2023/03/09 10:40:52;;;;;;;5.95;4.90;;;6.50;99.90;;;;;;4966005;28;20497;-63
2023/03/09 10:43:26;;;;;;;10.90;5.32;;;6.60;99.90;;;;;;4956308;28;20046;-63
2023/03/09 10:45:53;;;;;;;5.80;4.80;;;6.70;99.90;;;;;;4939053;28;20054;-63
2023/03/09 10:48:25;;;;;;;6.18;4.28;;;6.80;99.90;;;;;;4946857;28;20053;-63
2023/03/09 10:51:29;;;;;;;5.53;4.78;;;6.70;99.90;;;;;;4965986;28;20042;-63
2023/03/09 10:53:56;;;;;;;7.50;5.47;;;6.60;99.90;;;;;;4960507;28;20435;-63
2023/03/09 10:56:26;;;;;;;10.13;5.25;;;6.50;99.90;;;;;;4965431;28;20672;-63
2023/03/09 10:59:07;;;;;;;8.60;5.60;;;6.30;99.90;;;;;;4966649;28;20105;-63
2023/03/09 11:01:45;;;;;;;9.00;6.22;;;6.10;99.90;;;;;;4965170;28;20038;-63
2023/03/09 11:04:32;;;;;;;7.85;5.72;;;6.10;99.90;;;;;;4950806;28;20053;-63
2023/03/09 11:07:22;;;;;;;9.52;5.70;;;6.10;99.90;;;;;;4956586;28;20593;-63
2023/03/09 11:09:52;;;;;;;7.78;4.80;;;6.10;99.90;;;;;;4965392;28;20058;-63
2023/03/09 11:12:19;;;;;;;7.55;5.20;;;6.20;99.90;;;;;;4965529;28;20504;-63
2023/03/09 11:15:13;;;;;;;7.13;5.57;;;6.10;99.90;;;;;;4963130;28;20782;-63
2023/03/09 11:17:44;;;;;;;7.32;5.50;;;6.10;99.90;;;;;;4956300;28;20449;-63
2023/03/09 11:20:28;;;;;;;6.95;5.38;;;6.00;99.90;;;;;;4948138;28;20124;-63
2023/03/09 11:23:13;;;;;;;8.68;5.90;;;5.90;99.90;;;;;;4965405;28;20061;-63
2023/03/09 11:26:08;;;;;;;14.52;5.88;;;5.90;99.90;;;;;;4981849;28;20522;-64
2023/03/09 11:29:01;;;;;;;7.80;6.10;;;6.00;99.90;;;;;;4962432;28;20559;-63
2023/03/09 11:31:39;;;;;;;8.25;5.97;;;6.00;99.90;;;;;;4963719;28;20046;-64
2023/03/09 11:34:32;;;;;;;7.40;5.32;;;6.00;99.90;;;;;;4955616;28;20042;-63
2023/03/09 11:37:16;;;;;;;7.22;5.50;;;6.00;99.90;;;;;;4980931;28;20076;-63
2023/03/09 11:39:56;;;;;;;9.50;6.10;;;6.10;99.90;;;;;;4963680;28;20100;-63
2023/03/09 11:42:35;;;;;;;8.75;6.00;;;6.20;99.90;;;;;;4964244;28;20084;-63
2023/03/09 11:45:05;;;;;;;7.93;5.68;;;6.20;99.90;;;;;;4946002;28;20105;-63
2023/03/09 11:47:35;;;;;;;6.97;5.28;;;6.20;99.90;;;;;;4978647;28;20050;-63
2023/03/09 11:50:13;;;;;;;6.80;4.97;;;6.20;99.90;;;;;;4980988;28;20042;-63
2023/03/09 11:52:56;;;;;;;6.35;4.88;;;6.20;99.90;;;;;;4963275;28;20440;-63
2023/03/09 11:55:27;;;;;;;6.85;4.95;;;6.20;99.90;;;;;;4963775;28;20060;-64
2023/03/09 11:57:59;;;;;;;6.53;4.97;;;6.20;99.90;;;;;;4963509;28;20057;-63
2023/03/09 12:00:27;;;;;;;6.55;5.18;;;6.30;99.90;;;;;;4947235;28;20060;-63
2023/03/09 12:03:15;;;;;;;7.18;5.68;;;6.30;99.90;;;;;;4979289;28;20548;-63
2023/03/09 12:06:26;;;;;;;7.50;5.78;;;6.20;99.90;;;;;;4963588;28;20046;-63
2023/03/09 12:08:55;;;;;;;8.43;5.63;;;6.10;99.90;;;;;;4953999;28;20058;-63
2023/03/09 12:11:46;;;;;;;8.80;6.30;;;6.10;99.90;;;;;;4964538;28;20493;-64
2023/03/09 12:14:22;;;;;;;6.80;5.32;;;6.10;99.90;;;;;;4961559;28;20495;-63
2023/03/09 12:16:53;;;;;;;7.47;5.57;;;6.10;99.90;;;;;;4948872;28;20046;-63
2023/03/09 12:19:27;;;;;;;8.88;5.57;;;6.10;99.90;;;;;;4962675;28;20081;-63
2023/03/09 12:22:07;;;;;;;8.73;5.40;;;6.10;99.90;;;;;;4963417;28;20137;-63
2023/03/09 12:24:56;;;;;;;7.82;5.28;;;6.00;99.90;;;;;;4961787;28;20038;-63
2023/03/09 12:27:28;;;;;;;6.35;5.35;;;6.00;99.90;;;;;;4944917;28;20093;-63
2023/03/09 12:29:55;;;;;;;6.83;5.07;;;6.00;99.90;;;;;;4956017;28;20046;-64
2023/03/09 12:32:29;;;;;;;6.70;5.45;;;6.00;99.90;;;;;;4964413;28;20309;-63
2023/03/09 12:34:58;;;;;;;7.53;5.25;;;6.00;99.90;;;;;;4968369;28;20184;-63
2023/03/09 12:37:36;;;;;;;7.97;5.25;;;6.00;99.90;;;;;;4968526;28;20145;-63
2023/03/09 12:40:24;;;;;;;6.88;5.28;;;6.10;99.90;;;;;;4967263;28;20109;-63
2023/03/09 12:42:55;;;;;;;6.43;5.15;;;6.10;99.90;;;;;;4967688;28;20408;-64
2023/03/09 12:45:23;;;;;;;7.05;5.10;;;6.10;99.90;;;;;;4955776;28;20547;-64
2023/03/09 12:48:24;;;;;;;8.68;5.68;;;6.10;99.90;;;;;;4963891;28;20042;-63
2023/03/09 12:51:14;;;;;;;8.20;5.85;;;5.90;99.90;;;;;;4964941;28;20073;-64
2023/03/09 12:54:02;;;;;;;7.30;5.32;;;5.90;99.90;;;;;;4974429;28;20085;-63
2023/03/09 12:56:29;;;;;;;7.97;5.22;;;5.90;99.90;;;;;;4967989;28;20042;-63
2023/03/09 12:58:56;;;;;;;7.80;5.50;;;5.90;99.90;;;;;;4967228;28;20046;-63
2023/03/09 13:01:22;;;;;;;7.47;5.22;;;5.90;99.90;;;;;;4983903;28;20053;-64
2023/03/09 13:03:52;;;;;;;7.95;5.80;;;5.90;99.90;;;;;;4966123;28;20046;-63
2023/03/09 13:06:40;;;;;;;7.35;5.65;;;5.90;99.90;;;;;;4966577;28;20049;-63